createdAt,value
2018-08-23T00:00:05.616Z,51.64
2018-08-23T00:06:10.233Z,51.37
2018-08-23T00:12:14.789Z,51.93
2018-08-23T00:18:19.387Z,52.04
2018-08-23T00:24:24.724Z,52.99
2018-08-23T00:30:30.209Z,53.90
2018-08-23T00:36:36.380Z,53.51
2018-08-23T00:42:40.985Z,53.59
2018-08-23T00:48:45.612Z,54.21
2018-08-23T00:54:50.329Z,56.74
2018-08-23T01:00:59.900Z,57.04
2018-08-23T01:07:04.551Z,58.95
2018-08-23T01:13:09.139Z,59.73
2018-08-23T01:19:18.944Z,60.27
2018-08-23T01:25:23.590Z,61.20
2018-08-23T01:31:30.117Z,61.25
2018-08-23T01:37:42.185Z,60.73
2018-08-23T01:43:46.772Z,62.20
2018-08-23T01:49:51.351Z,63.04
2018-08-23T01:55:55.922Z,62.97
2018-08-23T02:02:04.981Z,62.78
2018-08-23T02:08:09.574Z,63.05
2018-08-23T02:14:14.169Z,63.51
2018-08-23T02:20:18.789Z,67.45
2018-08-23T02:26:23.417Z,67.17
2018-08-23T02:32:28.011Z,66.86
2018-08-23T02:38:32.781Z,66.04
2018-08-23T02:44:37.423Z,66.12
2018-08-23T02:50:41.986Z,66.69
2018-08-23T02:56:51.713Z,67.32
2018-08-23T03:02:56.430Z,67.05
2018-08-23T03:09:01.023Z,67.21
2018-08-23T03:15:07.263Z,67.53
2018-08-23T03:21:11.860Z,68.42
2018-08-23T03:27:16.437Z,68.58
2018-08-23T03:33:21.030Z,68.71
2018-08-23T03:39:25.685Z,67.98
2018-08-23T03:45:30.306Z,68.55
2018-08-23T03:51:38.677Z,68.66
2018-08-23T03:57:48.426Z,69.75
2018-08-23T04:03:53.708Z,69.98
2018-08-23T04:09:58.316Z,70.00
2018-08-23T04:16:03.635Z,70.69
2018-08-23T04:22:08.257Z,71.30
2018-08-23T04:28:13.292Z,71.59
2018-08-23T04:34:17.879Z,71.37
2018-08-23T04:40:22.514Z,71.74
2018-08-23T04:46:27.095Z,71.78
2018-08-23T04:52:31.719Z,71.99
2018-08-23T04:58:36.301Z,72.33
2018-08-23T05:04:40.886Z,72.66
2018-08-23T05:10:45.490Z,72.68
2018-08-23T05:16:50.064Z,72.26
2018-08-23T05:22:59.852Z,71.34
2018-08-23T05:29:05.455Z,71.68
2018-08-23T05:35:10.046Z,71.01
2018-08-23T05:41:14.630Z,71.10
2018-08-23T05:47:19.265Z,70.42
2018-08-23T05:53:23.874Z,68.84
2018-08-23T05:59:28.497Z,69.05
2018-08-23T06:05:33.106Z,67.33
2018-08-23T06:11:37.729Z,66.77
2018-08-23T06:17:42.273Z,66.22
2018-08-23T06:23:54.073Z,64.30
2018-08-23T06:29:58.657Z,63.75
2018-08-23T06:36:03.818Z,63.00
2018-08-23T06:42:08.456Z,62.34
2018-08-23T06:48:13.081Z,61.50
2018-08-23T06:54:17.709Z,57.52
2018-08-23T07:00:26.636Z,46.92
2018-08-23T07:06:31.463Z,47.45
2018-08-23T07:12:36.045Z,51.13
2018-08-23T07:18:40.641Z,53.74
2018-08-23T07:24:46.457Z,54.23
2018-08-23T07:30:51.128Z,54.22
2018-08-23T07:36:55.817Z,53.97
2018-08-23T07:43:00.448Z,53.29
2018-08-23T07:49:05.096Z,52.39
2018-08-23T07:55:09.720Z,52.86
2018-08-23T08:01:14.299Z,53.20
2018-08-23T08:07:21.711Z,50.88
2018-08-23T08:13:26.296Z,49.41
2018-08-23T08:19:38.149Z,48.50
2018-08-23T08:25:42.986Z,48.76
2018-08-23T08:31:47.706Z,47.98
2018-08-23T08:37:52.440Z,46.21
2018-08-23T08:43:57.075Z,46.18
2018-08-23T08:50:02.434Z,46.98
2018-08-23T08:56:08.059Z,45.90
2018-08-23T09:02:13.130Z,43.18
2018-08-23T09:08:18.263Z,40.70
2018-08-23T09:14:23.415Z,40.33
2018-08-23T09:20:28.753Z,39.50
2018-08-23T09:26:38.939Z,38.33
2018-08-23T09:32:43.941Z,38.25
2018-08-23T09:38:48.977Z,39.22
2018-08-23T09:45:11.045Z,38.58
2018-08-23T09:51:21.368Z,36.86
2018-08-23T09:57:26.877Z,36.63
2018-08-23T10:03:37.435Z,35.40
2018-08-23T10:09:47.330Z,32.70
2018-08-23T10:15:57.221Z,31.73
2018-08-23T10:22:07.211Z,30.88
2018-08-23T10:28:13.466Z,30.22
2018-08-23T10:34:18.537Z,29.21
2018-08-23T10:40:23.548Z,27.73
2018-08-23T10:46:28.469Z,29.11
2018-08-23T10:52:33.439Z,31.09
2018-08-23T10:58:38.437Z,31.32
2018-08-23T11:04:43.473Z,29.15
2018-08-23T11:10:53.469Z,27.79
2018-08-23T11:17:03.596Z,25.62
2018-08-23T11:23:08.708Z,25.37
2018-08-23T11:29:13.681Z,25.82
2018-08-23T11:35:18.694Z,26.79
2018-08-23T11:41:23.470Z,26.21
2018-08-23T11:47:28.185Z,23.80
2018-08-23T11:53:33.246Z,24.99
2018-08-23T11:59:38.069Z,23.62
2018-08-23T12:05:43.429Z,24.06
2018-08-23T12:11:48.440Z,23.92
2018-08-23T12:17:54.329Z,25.21
2018-08-23T12:23:59.256Z,25.16
2018-08-23T12:30:06.434Z,25.87
2018-08-23T12:36:11.218Z,25.55
2018-08-23T12:42:21.243Z,25.16
2018-08-23T12:48:26.317Z,26.84
2018-08-23T12:54:31.299Z,27.36
2018-08-23T13:00:36.933Z,25.73
2018-08-23T13:06:41.853Z,25.58
2018-08-23T13:12:46.882Z,25.26
2018-08-23T13:18:51.867Z,24.33
2018-08-23T13:25:01.901Z,25.26
2018-08-23T13:31:06.707Z,26.29
2018-08-23T13:37:11.428Z,24.44
2018-08-23T13:43:16.184Z,24.35
2018-08-23T13:49:20.901Z,27.02
2018-08-23T13:55:25.916Z,26.78
2018-08-23T14:01:30.775Z,27.28
2018-08-23T14:07:35.414Z,26.80
2018-08-23T14:13:41.573Z,26.03
2018-08-23T14:19:47.262Z,23.30
2018-08-23T14:25:53.300Z,22.67
2018-08-23T14:31:58.835Z,23.12
2018-08-23T14:38:03.638Z,22.52
2018-08-23T14:44:08.813Z,23.58
2018-08-23T14:50:13.424Z,23.84
2018-08-23T14:56:23.538Z,25.08
2018-08-23T15:02:28.592Z,25.39
2018-08-23T15:08:33.600Z,28.29
2018-08-23T15:14:38.712Z,31.99
2018-08-23T15:20:43.628Z,31.27
2018-08-23T15:26:48.766Z,34.08
2018-08-23T15:32:53.316Z,36.83
2018-08-23T15:38:57.966Z,38.06
2018-08-23T15:45:02.603Z,39.04
2018-08-23T15:51:07.300Z,35.73
2018-08-23T15:57:12.167Z,35.78
2018-08-23T16:03:17.163Z,35.91
2018-08-23T16:09:22.206Z,34.06
2018-08-23T16:15:27.560Z,32.73
2018-08-23T16:21:36.083Z,31.99
2018-08-23T16:27:41.150Z,33.27
2018-08-23T16:33:46.127Z,34.34
2018-08-23T16:39:51.169Z,35.64
2018-08-23T16:45:56.175Z,34.17
2018-08-23T16:52:01.168Z,33.53
2018-08-23T16:58:06.164Z,33.93
2018-08-23T17:04:11.218Z,33.48
2018-08-23T17:10:16.271Z,33.74
2018-08-23T17:16:26.876Z,34.33
2018-08-23T17:22:31.864Z,35.23
2018-08-23T17:28:36.995Z,37.61
2018-08-23T17:34:42.055Z,38.11
2018-08-23T17:40:47.465Z,38.52
2018-08-23T17:46:52.499Z,39.23
2018-08-23T17:52:57.483Z,39.67
2018-08-23T17:59:02.354Z,40.64
2018-08-23T18:05:07.378Z,41.32
2018-08-23T18:11:12.329Z,41.78
2018-08-23T18:17:17.296Z,43.46
2018-08-23T18:23:22.085Z,43.71
2018-08-23T18:29:26.767Z,44.59
2018-08-23T18:35:31.460Z,45.65
2018-08-23T18:41:36.434Z,45.39
2018-08-23T18:47:41.550Z,46.72
2018-08-23T18:53:46.515Z,46.87
2018-08-23T18:59:51.532Z,47.83
2018-08-23T19:05:56.435Z,47.81
2018-08-23T19:12:01.095Z,49.32
2018-08-23T19:18:06.095Z,49.07
2018-08-23T19:24:10.675Z,49.40
2018-08-23T19:30:15.288Z,51.20
2018-08-23T19:36:19.900Z,50.18
2018-08-23T19:42:24.561Z,50.84
2018-08-23T19:48:29.186Z,50.74
2018-08-23T19:54:33.800Z,51.83
2018-08-23T20:00:38.389Z,51.90
2018-08-23T20:06:42.985Z,52.95
2018-08-23T20:12:47.562Z,52.22
2018-08-23T20:18:52.201Z,53.44
2018-08-23T20:24:56.875Z,52.35
2018-08-23T20:31:01.438Z,53.45
2018-08-23T20:37:06.165Z,54.17
2018-08-23T20:43:10.750Z,53.40
2018-08-23T20:49:15.345Z,54.41
2018-08-23T20:55:19.926Z,54.73
2018-08-23T21:01:24.502Z,54.95
2018-08-23T21:07:29.082Z,54.63
2018-08-23T21:13:33.642Z,54.51
2018-08-23T21:19:38.279Z,54.05
2018-08-23T21:25:42.864Z,54.58
2018-08-23T21:31:47.460Z,54.93
2018-08-23T21:37:52.062Z,54.60
2018-08-23T21:43:56.676Z,54.96
2018-08-23T21:50:01.253Z,55.23
2018-08-23T21:56:05.839Z,54.34
2018-08-23T22:02:15.694Z,55.93
2018-08-23T22:08:20.307Z,55.36
2018-08-23T22:14:24.889Z,56.24
2018-08-23T22:20:29.513Z,55.97
2018-08-23T22:26:34.126Z,57.39
2018-08-23T22:32:38.768Z,57.92
2018-08-23T22:38:43.400Z,57.66
2018-08-23T22:44:48.006Z,57.77
2018-08-23T22:50:52.601Z,58.90
2018-08-23T22:56:57.253Z,58.76
2018-08-23T23:03:01.849Z,59.29
2018-08-23T23:09:11.144Z,58.91
2018-08-23T23:15:21.140Z,59.32
2018-08-23T23:21:25.704Z,59.70
2018-08-23T23:27:30.824Z,60.26
2018-08-23T23:33:35.430Z,59.97
2018-08-23T23:39:40.022Z,60.55
2018-08-23T23:45:44.560Z,60.62
2018-08-23T23:51:49.123Z,60.76
2018-08-23T23:57:53.684Z,60.72
